sensor_id;sensor_type;location;lat;lon;timestamp;pressure;altitude;pressure_sealevel;temperature;humidity
40205;BME280;26963;42.666;23.366;2023-06-14T00:00:38;94655.03;;;19.43;76.00
40205;BME280;26963;42.666;23.366;2023-06-14T00:03:08;94652.66;;;19.42;76.51
40205;BME280;26963;42.666;23.366;2023-06-14T00:05:36;94555.22;;;18.78;75.86
40205;BME280;26963;42.666;23.366;2023-06-14T00:08:06;94603.97;;;19.10;76.29
40205;BME280;26963;42.666;23.366;2023-06-14T00:10:35;94629.09;;;19.26;76.11
40205;BME280;26963;42.666;23.366;2023-06-14T00:13:02;94630.69;;;19.27;75.52
40205;BME280;26963;42.666;23.366;2023-06-14T00:15:30;94601.97;;;19.06;75.22
40205;BME280;26963;42.666;23.366;2023-06-14T00:17:59;94583.53;;;18.96;75.78
40205;BME280;26963;42.666;23.366;2023-06-14T00:20:30;94643.59;;;19.34;75.99
40205;BME280;26963;42.666;23.366;2023-06-14T00:23:00;94625.16;;;19.23;76.58
40205;BME280;26963;42.666;23.366;2023-06-14T00:25:26;94581.25;;;18.98;76.51
40205;BME280;26963;42.666;23.366;2023-06-14T00:27:53;94636.19;;;19.31;76.23
40205;BME280;26963;42.666;23.366;2023-06-14T00:30:19;94620.47;;;19.20;76.95
40205;BME280;26963;42.666;23.366;2023-06-14T00:32:45;94633.75;;;19.26;76.74
40205;BME280;26963;42.666;23.366;2023-06-14T00:35:11;94630.69;;;19.27;76.67
40205;BME280;26963;42.666;23.366;2023-06-14T00:37:37;94627.53;;;19.25;77.35
40205;BME280;26963;42.666;23.366;2023-06-14T00:40:04;94611.44;;;19.16;76.35
40205;BME280;26963;42.666;23.366;2023-06-14T00:42:30;94607.69;;;19.21;76.80
40205;BME280;26963;42.666;23.366;2023-06-14T00:44:55;94611.13;;;19.18;76.22
40205;BME280;26963;42.666;23.366;2023-06-14T00:47:21;94616.38;;;19.30;76.91
40205;BME280;26963;42.666;23.366;2023-06-14T00:49:47;94616.75;;;19.29;77.15
40205;BME280;26963;42.666;23.366;2023-06-14T00:52:13;94560.88;;;18.88;77.39
40205;BME280;26963;42.666;23.366;2023-06-14T00:54:40;94614.97;;;19.17;77.02
40205;BME280;26963;42.666;23.366;2023-06-14T00:57:07;94610.84;;;19.23;77.70
40205;BME280;26963;42.666;23.366;2023-06-14T00:59:33;94595.53;;;19.15;77.30
40205;BME280;26963;42.666;23.366;2023-06-14T01:02:00;94600.28;;;19.18;77.41
40205;BME280;26963;42.666;23.366;2023-06-14T01:04:26;94621.41;;;19.28;77.45
40205;BME280;26963;42.666;23.366;2023-06-14T01:15:15;94589.19;;;19.07;75.44
40205;BME280;26963;42.666;23.366;2023-06-14T01:17:41;94510.59;;;18.55;75.00
40205;BME280;26963;42.666;23.366;2023-06-14T01:20:13;94587.97;;;19.04;73.97
40205;BME280;26963;42.666;23.366;2023-06-14T01:22:53;94581.69;;;19.00;74.27
40205;BME280;26963;42.666;23.366;2023-06-14T01:25:22;94579.06;;;19.04;74.78
40205;BME280;26963;42.666;23.366;2023-06-14T01:27:50;94610.41;;;19.21;74.86
40205;BME280;26963;42.666;23.366;2023-06-14T01:30:17;94605.41;;;19.23;74.12
40205;BME280;26963;42.666;23.366;2023-06-14T01:32:44;94603.41;;;19.20;73.55
40205;BME280;26963;42.666;23.366;2023-06-14T01:35:10;94476.84;;;18.33;73.47
40205;BME280;26963;42.666;23.366;2023-06-14T01:37:36;94618.41;;;19.33;74.14
40205;BME280;26963;42.666;23.366;2023-06-14T01:40:04;94549.25;;;18.88;74.47
40205;BME280;26963;42.666;23.366;2023-06-14T01:42:34;94616.84;;;19.32;74.25
40205;BME280;26963;42.666;23.366;2023-06-14T01:45:01;94615.69;;;19.33;73.53
40205;BME280;26963;42.666;23.366;2023-06-14T01:47:27;94564.13;;;18.94;73.40
40205;BME280;26963;42.666;23.366;2023-06-14T01:49:53;94590.41;;;19.10;73.44
40205;BME280;26963;42.666;23.366;2023-06-14T01:52:19;94598.91;;;19.08;73.20
40205;BME280;26963;42.666;23.366;2023-06-14T01:54:44;94582.66;;;18.92;73.38
40205;BME280;26963;42.666;23.366;2023-06-14T01:57:11;94613.94;;;19.05;73.12
40205;BME280;26963;42.666;23.366;2023-06-14T01:59:37;94612.13;;;18.94;73.97
40205;BME280;26963;42.666;23.366;2023-06-14T02:02:03;94527.00;;;18.27;74.50
40205;BME280;26963;42.666;23.366;2023-06-14T02:04:31;94627.63;;;18.93;75.97
40205;BME280;26963;42.666;23.366;2023-06-14T02:06:57;94615.88;;;18.89;76.14
40205;BME280;26963;42.666;23.366;2023-06-14T02:09:22;94509.72;;;18.16;76.69
40205;BME280;26963;42.666;23.366;2023-06-14T02:11:49;94640.03;;;18.94;76.78
40205;BME280;26963;42.666;23.366;2023-06-14T02:14:14;94636.19;;;18.95;76.53
40205;BME280;26963;42.666;23.366;2023-06-14T02:16:42;94595.72;;;18.70;76.92
40205;BME280;26963;42.666;23.366;2023-06-14T02:19:15;94632.91;;;18.89;76.87
40205;BME280;26963;42.666;23.366;2023-06-14T02:21:41;94643.88;;;18.93;77.16
40205;BME280;26963;42.666;23.366;2023-06-14T02:24:06;94640.53;;;19.00;76.45
40205;BME280;26963;42.666;23.366;2023-06-14T02:26:32;94530.47;;;18.28;75.85
40205;BME280;26963;42.666;23.366;2023-06-14T02:28:58;94649.56;;;19.04;74.74
40205;BME280;26963;42.666;23.366;2023-06-14T02:31:23;94638.53;;;18.97;74.52
40205;BME280;26963;42.666;23.366;2023-06-14T02:33:49;94623.16;;;18.85;74.09
40205;BME280;26963;42.666;23.366;2023-06-14T02:36:15;94649.19;;;19.05;74.23
40205;BME280;26963;42.666;23.366;2023-06-14T02:38:41;94646.47;;;19.05;74.20
40205;BME280;26963;42.666;23.366;2023-06-14T02:41:07;94488.59;;;18.05;73.70
40205;BME280;26963;42.666;23.366;2023-06-14T02:43:32;94634.78;;;19.01;73.83
40205;BME280;26963;42.666;23.366;2023-06-14T02:45:58;94644.47;;;19.02;74.12
40205;BME280;26963;42.666;23.366;2023-06-14T02:48:23;94618.88;;;18.84;74.73
40205;BME280;26963;42.666;23.366;2023-06-14T02:50:49;94637.69;;;18.93;74.21
40205;BME280;26963;42.666;23.366;2023-06-14T02:53:15;94597.56;;;18.66;74.75
40205;BME280;26963;42.666;23.366;2023-06-14T02:55:41;94584.09;;;18.54;74.33
40205;BME280;26963;42.666;23.366;2023-06-14T02:58:06;94632.50;;;18.71;74.47
40205;BME280;26963;42.666;23.366;2023-06-14T03:00:32;94571.19;;;18.31;75.08
40205;BME280;26963;42.666;23.366;2023-06-14T03:02:58;94614.34;;;18.56;75.30
40205;BME280;26963;42.666;23.366;2023-06-14T03:05:27;94660.38;;;18.88;75.86
40205;BME280;26963;42.666;23.366;2023-06-14T03:07:53;94652.88;;;18.81;75.42
40205;BME280;26963;42.666;23.366;2023-06-14T03:10:19;94650.50;;;18.80;76.23
40205;BME280;26963;42.666;23.366;2023-06-14T03:12:47;94666.28;;;18.90;75.55
40205;BME280;26963;42.666;23.366;2023-06-14T03:15:12;94647.38;;;18.78;75.91
40205;BME280;26963;42.666;23.366;2023-06-14T03:17:38;94659.25;;;18.89;76.65
40205;BME280;26963;42.666;23.366;2023-06-14T03:20:05;94661.53;;;18.87;76.76
40205;BME280;26963;42.666;23.366;2023-06-14T03:22:31;94670.09;;;18.89;76.10
40205;BME280;26963;42.666;23.366;2023-06-14T03:24:59;94644.22;;;18.75;76.01
40205;BME280;26963;42.666;23.366;2023-06-14T03:27:25;94664.78;;;18.93;75.67
40205;BME280;26963;42.666;23.366;2023-06-14T03:29:53;94621.50;;;18.64;75.11
40205;BME280;26963;42.666;23.366;2023-06-14T03:32:19;94658.72;;;18.99;75.31
40205;BME280;26963;42.666;23.366;2023-06-14T03:34:44;94664.94;;;19.00;74.49
40205;BME280;26963;42.666;23.366;2023-06-14T03:37:10;94645.25;;;18.87;74.45
40205;BME280;26963;42.666;23.366;2023-06-14T03:39:35;94653.16;;;18.92;74.66
40205;BME280;26963;42.666;23.366;2023-06-14T03:42:01;94647.97;;;18.87;73.89
40205;BME280;26963;42.666;23.366;2023-06-14T03:44:27;94681.19;;;19.00;74.11
40205;BME280;26963;42.666;23.366;2023-06-14T03:46:53;94616.53;;;18.66;73.98
40205;BME280;26963;42.666;23.366;2023-06-14T03:49:18;94607.53;;;18.62;74.18
40205;BME280;26963;42.666;23.366;2023-06-14T03:51:44;94668.19;;;19.05;74.36
40205;BME280;26963;42.666;23.366;2023-06-14T03:54:10;94610.66;;;18.64;73.89
40205;BME280;26963;42.666;23.366;2023-06-14T03:56:35;94658.44;;;18.88;74.04
40205;BME280;26963;42.666;23.366;2023-06-14T03:59:01;94679.72;;;19.02;74.16
40205;BME280;26963;42.666;23.366;2023-06-14T04:01:27;94681.47;;;19.11;73.44
40205;BME280;26963;42.666;23.366;2023-06-14T04:03:57;94623.78;;;18.62;73.50
40205;BME280;26963;42.666;23.366;2023-06-14T04:06:23;94629.72;;;18.68;73.84
40205;BME280;26963;42.666;23.366;2023-06-14T04:08:51;94686.03;;;19.06;74.20
40205;BME280;26963;42.666;23.366;2023-06-14T04:11:17;94657.16;;;18.98;74.07
40205;BME280;26963;42.666;23.366;2023-06-14T04:13:42;94688.53;;;19.15;74.27
40205;BME280;26963;42.666;23.366;2023-06-14T04:16:08;94629.72;;;18.84;74.14
40205;BME280;26963;42.666;23.366;2023-06-14T04:18:33;94671.28;;;19.23;73.59
40205;BME280;26963;42.666;23.366;2023-06-14T04:20:59;94680.34;;;19.31;73.78
40205;BME280;26963;42.666;23.366;2023-06-14T04:23:25;94667.94;;;19.30;73.30
40205;BME280;26963;42.666;23.366;2023-06-14T04:25:53;94605.38;;;19.03;73.37
40205;BME280;26963;42.666;23.366;2023-06-14T04:28:19;94631.81;;;19.26;72.74
40205;BME280;26963;42.666;23.366;2023-06-14T04:30:45;94614.41;;;19.47;70.84
40205;BME280;26963;42.666;23.366;2023-06-14T04:33:12;94685.81;;;20.29;69.14
40205;BME280;26963;42.666;23.366;2023-06-14T04:35:39;94666.31;;;20.47;67.63
40205;BME280;26963;42.666;23.366;2023-06-14T04:38:06;94675.38;;;21.28;65.54
40205;BME280;26963;42.666;23.366;2023-06-14T04:40:35;94680.88;;;21.31;64.14
40205;BME280;26963;42.666;23.366;2023-06-14T04:43:11;94684.00;;;21.33;64.45
40205;BME280;26963;42.666;23.366;2023-06-14T04:45:40;94665.47;;;21.43;64.38
40205;BME280;26963;42.666;23.366;2023-06-14T04:48:06;94680.81;;;22.57;60.74
40205;BME280;26963;42.666;23.366;2023-06-14T04:50:32;94645.44;;;23.16;57.81
40205;BME280;26963;42.666;23.366;2023-06-14T04:52:58;94678.78;;;24.57;54.80
40205;BME280;26963;42.666;23.366;2023-06-14T04:55:25;94620.97;;;24.30;52.46
40205;BME280;26963;42.666;23.366;2023-06-14T04:57:51;94684.19;;;24.21;53.38
40205;BME280;26963;42.666;23.366;2023-06-14T05:00:20;94697.78;;;23.96;53.96
40205;BME280;26963;42.666;23.366;2023-06-14T05:02:45;94690.94;;;23.60;55.30
40205;BME280;26963;42.666;23.366;2023-06-14T05:05:12;94694.63;;;23.23;56.17
40205;BME280;26963;42.666;23.366;2023-06-14T05:07:38;94605.84;;;22.36;56.50
40205;BME280;26963;42.666;23.366;2023-06-14T05:10:04;94659.50;;;22.28;57.14
40205;BME280;26963;42.666;23.366;2023-06-14T05:12:30;94695.59;;;22.18;58.41
40205;BME280;26963;42.666;23.366;2023-06-14T05:14:56;94706.22;;;21.96;60.23
40205;BME280;26963;42.666;23.366;2023-06-14T05:17:24;94704.00;;;21.72;60.04
40205;BME280;26963;42.666;23.366;2023-06-14T05:19:49;94693.13;;;21.45;60.65
40205;BME280;26963;42.666;23.366;2023-06-14T05:22:15;94706.72;;;21.45;60.90
40205;BME280;26963;42.666;23.366;2023-06-14T05:24:41;94710.53;;;21.40;61.30
40205;BME280;26963;42.666;23.366;2023-06-14T05:27:07;94649.25;;;20.96;60.72
40205;BME280;26963;42.666;23.366;2023-06-14T05:29:33;94717.50;;;21.38;60.76
40205;BME280;26963;42.666;23.366;2023-06-14T05:31:58;94711.13;;;21.26;61.66
40205;BME280;26963;42.666;23.366;2023-06-14T05:34:24;94712.25;;;21.25;61.45
40205;BME280;26963;42.666;23.366;2023-06-14T05:36:50;94575.38;;;20.41;61.85
40205;BME280;26963;42.666;23.366;2023-06-14T05:39:15;94662.16;;;20.99;62.47
40205;BME280;26963;42.666;23.366;2023-06-14T05:41:42;94642.59;;;20.90;62.54
40205;BME280;26963;42.666;23.366;2023-06-14T05:44:09;94707.25;;;21.27;61.11
40205;BME280;26963;42.666;23.366;2023-06-14T05:46:34;94674.69;;;21.08;60.80
40205;BME280;26963;42.666;23.366;2023-06-14T05:49:00;94704.91;;;21.26;61.26
40205;BME280;26963;42.666;23.366;2023-06-14T05:51:25;94736.97;;;21.40;61.73
40205;BME280;26963;42.666;23.366;2023-06-14T05:53:51;94695.97;;;21.02;62.30
40205;BME280;26963;42.666;23.366;2023-06-14T05:56:18;94736.88;;;21.32;62.07
40205;BME280;26963;42.666;23.366;2023-06-14T05:58:44;94731.41;;;21.32;61.91
40205;BME280;26963;42.666;23.366;2023-06-14T06:01:10;94735.41;;;21.39;62.32
40205;BME280;26963;42.666;23.366;2023-06-14T06:03:36;94729.44;;;21.29;62.02
40205;BME280;26963;42.666;23.366;2023-06-14T06:06:02;94710.47;;;21.10;61.66
40205;BME280;26963;42.666;23.366;2023-06-14T06:08:28;94698.56;;;21.18;61.33
40205;BME280;26963;42.666;23.366;2023-06-14T06:10:54;94739.28;;;21.95;60.98
40205;BME280;26963;42.666;23.366;2023-06-14T06:13:19;94737.81;;;22.35;59.62
40205;BME280;26963;42.666;23.366;2023-06-14T06:15:45;94750.03;;;22.45;59.15
40205;BME280;26963;42.666;23.366;2023-06-14T06:18:11;94728.13;;;22.38;59.13
40205;BME280;26963;42.666;23.366;2023-06-14T06:20:36;94721.72;;;22.57;58.48
40205;BME280;26963;42.666;23.366;2023-06-14T06:23:02;94718.78;;;22.80;56.38
40205;BME280;26963;42.666;23.366;2023-06-14T06:25:28;94740.41;;;23.00;55.70
40205;BME280;26963;42.666;23.366;2023-06-14T06:27:54;94697.97;;;22.61;56.55
40205;BME280;26963;42.666;23.366;2023-06-14T06:30:20;94719.13;;;22.71;56.35
40205;BME280;26963;42.666;23.366;2023-06-14T06:32:46;94743.56;;;22.60;56.44
40205;BME280;26963;42.666;23.366;2023-06-14T06:35:13;94691.94;;;22.03;57.08
40205;BME280;26963;42.666;23.366;2023-06-14T06:37:39;94755.69;;;22.32;57.70
40205;BME280;26963;42.666;23.366;2023-06-14T06:40:05;94692.00;;;21.76;57.45
40205;BME280;26963;42.666;23.366;2023-06-14T06:42:31;94744.78;;;21.98;57.81
40205;BME280;26963;42.666;23.366;2023-06-14T06:44:57;94757.09;;;21.89;58.58
40205;BME280;26963;42.666;23.366;2023-06-14T06:47:23;94760.78;;;21.73;58.90
40205;BME280;26963;42.666;23.366;2023-06-14T06:49:49;94751.84;;;21.46;59.45
40205;BME280;26963;42.666;23.366;2023-06-14T06:52:14;94765.03;;;21.44;59.64
40205;BME280;26963;42.666;23.366;2023-06-14T06:54:40;94663.72;;;20.77;60.62
40205;BME280;26963;42.666;23.366;2023-06-14T06:57:05;94756.34;;;21.34;61.55
40205;BME280;26963;42.666;23.366;2023-06-14T06:59:32;94755.47;;;21.30;62.02
40205;BME280;26963;42.666;23.366;2023-06-14T07:01:58;94765.34;;;21.39;61.32
40205;BME280;26963;42.666;23.366;2023-06-14T07:04:23;94753.69;;;21.42;60.93
40205;BME280;26963;42.666;23.366;2023-06-14T07:06:49;94744.91;;;21.52;59.95
40205;BME280;26963;42.666;23.366;2023-06-14T07:09:15;94743.56;;;21.65;59.36
40205;BME280;26963;42.666;23.366;2023-06-14T07:11:44;94746.53;;;21.83;59.32
40205;BME280;26963;42.666;23.366;2023-06-14T07:14:10;94717.31;;;21.80;59.28
40205;BME280;26963;42.666;23.366;2023-06-14T07:16:37;94710.28;;;22.10;58.00
40205;BME280;26963;42.666;23.366;2023-06-14T07:19:03;94726.50;;;23.12;56.00
40205;BME280;26963;42.666;23.366;2023-06-14T07:21:29;94749.97;;;24.71;51.91
40205;BME280;26963;42.666;23.366;2023-06-14T07:23:55;94749.84;;;26.19;47.88
40205;BME280;26963;42.666;23.366;2023-06-14T07:26:21;94734.94;;;26.28;46.87
40205;BME280;26963;42.666;23.366;2023-06-14T07:28:47;94691.25;;;27.18;43.68
40205;BME280;26963;42.666;23.366;2023-06-14T07:31:17;94739.66;;;28.58;41.65
40205;BME280;26963;42.666;23.366;2023-06-14T07:33:44;94729.00;;;30.46;38.05
40205;BME280;26963;42.666;23.366;2023-06-14T07:36:10;94701.47;;;32.08;35.63
40205;BME280;26963;42.666;23.366;2023-06-14T07:38:36;94706.66;;;33.86;31.72
40205;BME280;26963;42.666;23.366;2023-06-14T07:41:02;94714.94;;;35.16;30.27
40205;BME280;26963;42.666;23.366;2023-06-14T07:43:27;94733.16;;;36.22;28.59
40205;BME280;26963;42.666;23.366;2023-06-14T07:45:53;94736.09;;;37.08;28.04
40205;BME280;26963;42.666;23.366;2023-06-14T07:48:19;94724.94;;;36.56;25.75
40205;BME280;26963;42.666;23.366;2023-06-14T07:50:44;94730.16;;;34.61;29.34
40205;BME280;26963;42.666;23.366;2023-06-14T07:53:10;94733.75;;;35.62;27.97
40205;BME280;26963;42.666;23.366;2023-06-14T07:55:36;94735.38;;;35.90;27.53
40205;BME280;26963;42.666;23.366;2023-06-14T07:58:06;94732.19;;;35.42;26.97
40205;BME280;26963;42.666;23.366;2023-06-14T08:00:31;94751.28;;;36.18;26.82
40205;BME280;26963;42.666;23.366;2023-06-14T08:02:57;94755.34;;;33.87;29.57
40205;BME280;26963;42.666;23.366;2023-06-14T08:05:28;94738.25;;;31.92;31.81
40205;BME280;26963;42.666;23.366;2023-06-14T08:07:53;94753.19;;;30.79;33.82
40205;BME280;26963;42.666;23.366;2023-06-14T08:10:20;94717.22;;;29.61;36.15
40205;BME280;26963;42.666;23.366;2023-06-14T08:12:46;94738.69;;;28.99;37.38
40205;BME280;26963;42.666;23.366;2023-06-14T08:15:12;94771.19;;;28.80;38.76
40205;BME280;26963;42.666;23.366;2023-06-14T08:17:37;94784.78;;;28.33;39.56
40205;BME280;26963;42.666;23.366;2023-06-14T08:20:04;94779.72;;;28.28;39.87
40205;BME280;26963;42.666;23.366;2023-06-14T08:22:30;94759.44;;;30.42;36.26
40205;BME280;26963;42.666;23.366;2023-06-14T08:25:00;94767.78;;;32.41;33.57
40205;BME280;26963;42.666;23.366;2023-06-14T08:27:26;94756.22;;;32.97;31.82
40205;BME280;26963;42.666;23.366;2023-06-14T08:29:52;94685.09;;;33.55;30.65
40205;BME280;26963;42.666;23.366;2023-06-14T08:32:17;94761.31;;;34.87;28.51
40205;BME280;26963;42.666;23.366;2023-06-14T08:34:43;94738.19;;;34.68;28.40
40205;BME280;26963;42.666;23.366;2023-06-14T08:37:10;94745.66;;;34.49;28.52
40205;BME280;26963;42.666;23.366;2023-06-14T08:39:36;94769.97;;;34.67;28.41
40205;BME280;26963;42.666;23.366;2023-06-14T08:42:03;94772.16;;;34.94;28.07
40205;BME280;26963;42.666;23.366;2023-06-14T08:44:30;94766.06;;;35.50;27.33
40205;BME280;26963;42.666;23.366;2023-06-14T08:46:56;94590.16;;;33.51;27.64
40205;BME280;26963;42.666;23.366;2023-06-14T08:49:25;94765.72;;;34.09;28.21
40205;BME280;26963;42.666;23.366;2023-06-14T08:51:58;94695.78;;;33.44;28.56
40205;BME280;26963;42.666;23.366;2023-06-14T08:54:33;94708.34;;;33.71;29.20
40205;BME280;26963;42.666;23.366;2023-06-14T08:57:03;94745.84;;;35.18;27.06
40205;BME280;26963;42.666;23.366;2023-06-14T08:59:32;94751.69;;;32.78;30.08
40205;BME280;26963;42.666;23.366;2023-06-14T09:02:05;94763.25;;;33.89;28.40
40205;BME280;26963;42.666;23.366;2023-06-14T09:04:31;94771.34;;;31.95;31.25
40205;BME280;26963;42.666;23.366;2023-06-14T09:06:58;94762.06;;;32.18;31.63
40205;BME280;26963;42.666;23.366;2023-06-14T09:09:24;94693.56;;;30.81;32.87
40205;BME280;26963;42.666;23.366;2023-06-14T09:11:51;94751.03;;;30.50;34.31
40205;BME280;26963;42.666;23.366;2023-06-14T09:14:18;94760.28;;;29.75;36.13
40205;BME280;26963;42.666;23.366;2023-06-14T09:16:44;94756.91;;;29.17;37.14
40205;BME280;26963;42.666;23.366;2023-06-14T09:19:20;94757.91;;;28.75;37.90
40205;BME280;26963;42.666;23.366;2023-06-14T09:21:47;94749.31;;;28.39;38.98
40205;BME280;26963;42.666;23.366;2023-06-14T09:24:14;94752.28;;;28.21;39.80
40205;BME280;26963;42.666;23.366;2023-06-14T09:26:40;94746.97;;;28.03;40.03
40205;BME280;26963;42.666;23.366;2023-06-14T09:29:06;94746.06;;;28.17;40.31
40205;BME280;26963;42.666;23.366;2023-06-14T09:31:31;94696.13;;;27.83;40.37
40205;BME280;26963;42.666;23.366;2023-06-14T09:34:01;94753.03;;;27.87;40.14
40205;BME280;26963;42.666;23.366;2023-06-14T09:36:28;94685.19;;;26.93;41.46
40205;BME280;26963;42.666;23.366;2023-06-14T09:39:01;94704.94;;;26.73;42.12
40205;BME280;26963;42.666;23.366;2023-06-14T09:41:38;94739.44;;;26.70;43.34
40205;BME280;26963;42.666;23.366;2023-06-14T09:44:08;94756.28;;;26.69;43.38
40205;BME280;26963;42.666;23.366;2023-06-14T09:46:35;94690.34;;;26.20;42.22
40205;BME280;26963;42.666;23.366;2023-06-14T09:49:01;94737.72;;;26.20;42.73
40205;BME280;26963;42.666;23.366;2023-06-14T09:51:28;94705.22;;;26.15;43.45
40205;BME280;26963;42.666;23.366;2023-06-14T09:54:01;94688.66;;;26.37;43.39
40205;BME280;26963;42.666;23.366;2023-06-14T09:56:35;94679.13;;;26.56;43.66
40205;BME280;26963;42.666;23.366;2023-06-14T09:59:04;94740.09;;;26.93;42.34
40205;BME280;26963;42.666;23.366;2023-06-14T10:01:31;94718.97;;;26.82;42.38
40205;BME280;26963;42.666;23.366;2023-06-14T10:04:02;94714.94;;;26.98;43.59
40205;BME280;26963;42.666;23.366;2023-06-14T10:06:29;94717.50;;;27.23;43.65
40205;BME280;26963;42.666;23.366;2023-06-14T10:08:57;94713.75;;;27.52;41.33
40205;BME280;26963;42.666;23.366;2023-06-14T10:11:25;94692.44;;;27.63;41.20
40205;BME280;26963;42.666;23.366;2023-06-14T10:13:51;94718.81;;;27.91;40.72
40205;BME280;26963;42.666;23.366;2023-06-14T10:16:21;94686.31;;;27.82;40.33
40205;BME280;26963;42.666;23.366;2023-06-14T10:19:03;94698.09;;;27.83;40.20
40205;BME280;26963;42.666;23.366;2023-06-14T10:24:51;94697.69;;;27.85;40.51
40205;BME280;26963;42.666;23.366;2023-06-14T10:27:17;94690.19;;;27.89;40.78
40205;BME280;26963;42.666;23.366;2023-06-14T10:32:26;94700.72;;;27.59;40.50
40205;BME280;26963;42.666;23.366;2023-06-14T10:34:59;94690.19;;;27.50;39.97
40205;BME280;26963;42.666;23.366;2023-06-14T10:37:25;94708.31;;;27.44;40.83
40205;BME280;26963;42.666;23.366;2023-06-14T10:39:51;94706.84;;;27.32;41.21
40205;BME280;26963;42.666;23.366;2023-06-14T10:42:18;94675.56;;;27.19;40.68
40205;BME280;26963;42.666;23.366;2023-06-14T10:44:51;94692.66;;;27.38;40.65
40205;BME280;26963;42.666;23.366;2023-06-14T10:47:36;94640.19;;;27.25;40.47
40205;BME280;26963;42.666;23.366;2023-06-14T10:50:09;94689.97;;;27.72;40.71
40205;BME280;26963;42.666;23.366;2023-06-14T10:52:41;94650.66;;;27.37;40.04
40205;BME280;26963;42.666;23.366;2023-06-14T10:57:47;94672.75;;;26.77;41.68
40205;BME280;26963;42.666;23.366;2023-06-14T11:00:20;94667.81;;;26.50;41.79
40205;BME280;26963;42.666;23.366;2023-06-14T11:08:39;94674.72;;;25.99;43.96
40205;BME280;26963;42.666;23.366;2023-06-14T11:11:08;94680.22;;;25.99;43.55
40205;BME280;26963;42.666;23.366;2023-06-14T11:13:37;94671.56;;;26.11;43.54
40205;BME280;26963;42.666;23.366;2023-06-14T11:16:10;94655.13;;;26.11;42.98
40205;BME280;26963;42.666;23.366;2023-06-14T11:18:36;94658.25;;;26.13;42.96
40205;BME280;26963;42.666;23.366;2023-06-14T11:21:02;94652.72;;;26.20;42.80
40205;BME280;26963;42.666;23.366;2023-06-14T11:23:28;94657.34;;;26.31;43.06
40205;BME280;26963;42.666;23.366;2023-06-14T11:25:53;94626.03;;;26.25;42.25
40205;BME280;26963;42.666;23.366;2023-06-14T11:28:19;94655.00;;;26.33;43.21
40205;BME280;26963;42.666;23.366;2023-06-14T11:30:59;94647.97;;;26.25;43.11
40205;BME280;26963;42.666;23.366;2023-06-14T11:33:25;94658.59;;;26.23;42.65
40205;BME280;26963;42.666;23.366;2023-06-14T11:35:51;94658.63;;;26.15;42.75
40205;BME280;26963;42.666;23.366;2023-06-14T11:38:17;94667.69;;;26.05;42.44
40205;BME280;26963;42.666;23.366;2023-06-14T11:40:43;94656.38;;;25.88;43.21
40205;BME280;26963;42.666;23.366;2023-06-14T11:43:08;94558.75;;;25.17;42.92
40205;BME280;26963;42.666;23.366;2023-06-14T11:45:34;94644.69;;;25.73;43.42
40205;BME280;26963;42.666;23.366;2023-06-14T11:48:00;94622.41;;;25.71;41.99
40205;BME280;26963;42.666;23.366;2023-06-14T11:50:27;94597.38;;;25.59;42.94
40205;BME280;26963;42.666;23.366;2023-06-14T11:52:56;94624.72;;;25.77;43.73
40205;BME280;26963;42.666;23.366;2023-06-14T11:55:23;94581.00;;;25.51;43.30
40205;BME280;26963;42.666;23.366;2023-06-14T11:57:49;94631.31;;;25.90;42.51
40205;BME280;26963;42.666;23.366;2023-06-14T12:00:15;94600.38;;;25.93;42.88
40205;BME280;26963;42.666;23.366;2023-06-14T12:02:42;94619.88;;;26.13;42.65
40205;BME280;26963;42.666;23.366;2023-06-14T12:05:08;94624.16;;;26.14;43.51
40205;BME280;26963;42.666;23.366;2023-06-14T12:07:38;94608.84;;;26.20;43.22
40205;BME280;26963;42.666;23.366;2023-06-14T12:10:08;94590.13;;;26.08;43.52
40205;BME280;26963;42.666;23.366;2023-06-14T12:12:38;94600.69;;;26.13;43.42
40205;BME280;26963;42.666;23.366;2023-06-14T12:15:07;94593.25;;;26.10;43.19
40205;BME280;26963;42.666;23.366;2023-06-14T12:17:34;94592.16;;;25.89;43.09
40205;BME280;26963;42.666;23.366;2023-06-14T12:20:06;94594.22;;;25.64;43.31
40205;BME280;26963;42.666;23.366;2023-06-14T12:22:37;94603.66;;;25.63;43.76
40205;BME280;26963;42.666;23.366;2023-06-14T12:25:04;94557.59;;;25.14;44.11
40205;BME280;26963;42.666;23.366;2023-06-14T12:27:30;94553.75;;;25.01;44.60
40205;BME280;26963;42.666;23.366;2023-06-14T12:30:02;94589.63;;;25.24;45.19
40205;BME280;26963;42.666;23.366;2023-06-14T12:32:28;94593.53;;;25.31;44.77
40205;BME280;26963;42.666;23.366;2023-06-14T12:34:55;94527.94;;;24.98;45.30
40205;BME280;26963;42.666;23.366;2023-06-14T12:37:21;94581.81;;;25.27;44.82
40205;BME280;26963;42.666;23.366;2023-06-14T12:39:47;94574.81;;;25.18;45.00
40205;BME280;26963;42.666;23.366;2023-06-14T12:42:12;94533.03;;;24.92;45.36
40205;BME280;26963;42.666;23.366;2023-06-14T12:44:39;94588.47;;;25.29;45.51
40205;BME280;26963;42.666;23.366;2023-06-14T12:47:07;94512.75;;;24.79;44.99
40205;BME280;26963;42.666;23.366;2023-06-14T12:49:33;94568.53;;;25.29;44.22
40205;BME280;26963;42.666;23.366;2023-06-14T12:51:58;94576.72;;;25.29;44.24
40205;BME280;26963;42.666;23.366;2023-06-14T12:54:24;94583.00;;;25.26;45.20
40205;BME280;26963;42.666;23.366;2023-06-14T12:56:51;94577.88;;;25.35;45.82
40205;BME280;26963;42.666;23.366;2023-06-14T12:59:17;94561.47;;;25.31;44.30
40205;BME280;26963;42.666;23.366;2023-06-14T13:01:43;94559.13;;;25.30;43.68
40205;BME280;26963;42.666;23.366;2023-06-14T13:04:10;94570.47;;;25.24;43.89
40205;BME280;26963;42.666;23.366;2023-06-14T13:06:36;94541.97;;;25.11;43.42
40205;BME280;26963;42.666;23.366;2023-06-14T13:09:02;94482.66;;;24.68;43.46
40205;BME280;26963;42.666;23.366;2023-06-14T13:11:29;94596.75;;;24.89;47.09